This is the latest recevied weather packets stored in our database for station/object K9MWD. If no packets are shown the sender has not sent any weather packets the latest 10 day(s).
| Time | Temp. | Humidity | Pressure | Rain* | Wind** | Luminosity | Snow |
|---|---|---|---|---|---|---|---|
| 1788196168 | 34.44° C | 46% | 1017.6 hPa | 0 mm | - | 808 W/m² | - |
| 1788195864 | 34.44° C | 46% | 1017.6 hPa | 0 mm | - | 802 W/m² | - |
| 1788195561 | 33.89° C | 46% | 1017.9 hPa | 0 mm | - | 791 W/m² | - |
| 1788195256 | 34.44° C | 47% | 1017.7 hPa | 0 mm | - | 773 W/m² | - |
| 1788194953 | 33.89° C | 48% | 1017.6 hPa | 0 mm | - | 765 W/m² | - |
| 1788194649 | 33.89° C | 47% | 1017.7 hPa | 0 mm | - | 767 W/m² | - |
| 1788194344 | 33.89° C | 47% | 1017.7 hPa | 0 mm | - | 752 W/m² | - |
| 1788194039 | 33.89° C | 48% | 1017.9 hPa | 0 mm | - | 745 W/m² | - |
| 1788193738 | 34.44° C | 48% | 1017.8 hPa | 0 mm | - | 734 W/m² | - |
| 1788193433 | 33.33° C | 49% | 1017.8 hPa | 0 mm | - | 726 W/m² | - |
| 1788193132 | 33.89° C | 48% | 1017.7 hPa | 0 mm | - | 710 W/m² | - |
| 1788192828 | 33.89° C | 49% | 1017.8 hPa | 0 mm | - | 699 W/m² | - |
| 1788192524 | 33.33° C | 50% | 1017.8 hPa | 0 mm | - | 689 W/m² | - |
| 1788192224 | 33.89° C | 48% | 1017.8 hPa | 0 mm | - | 677 W/m² | - |
| 1788191919 | 32.78° C | 49% | 1017.7 hPa | 0 mm | - | 661 W/m² | - |
| 1788191618 | 32.22° C | 51% | 1017.8 hPa | 0 mm | - | 648 W/m² | - |
| 1788191314 | 32.78° C | 52% | 1017.8 hPa | 0 mm | - | 632 W/m² | - |
| 1788191011 | 31.67° C | 56% | 1017.8 hPa | 0 mm | - | 620 W/m² | - |
| 1788190709 | 32.22° C | 55% | 1018 hPa | 0 mm | - | 607 W/m² | - |
| 1788190405 | 31.67° C | 55% | 1017.7 hPa | 0 mm | - | 591 W/m² | - |
| 1788190101 | 32.22° C | 56% | 1017.7 hPa | 0 mm | - | 578 W/m² | - |
| 1788189797 | 31.67° C | 60% | 1017.8 hPa | 0 mm | - | 563 W/m² | - |
| 1788189511 | 31.67° C | 59% | 1017.6 hPa | 0 mm | - | 546 W/m² | - |
| 1788189190 | 31.11° C | 60% | 1017.6 hPa | 0 mm | - | 528 W/m² | - |
| 1788188886 | 31.11° C | 61% | 1017.7 hPa | 0 mm | - | 515 W/m² | - |
* Rain latest hour (hover to see other rain measurements)
** Current wind speed in m/s (hover to see current wind gust speed)